Time;durP1;ratioP1;P1;durP2;ratioP2;P2;SDS_P1;SDS_P2;PMS_P1;PMS_P2;Temp;Humidity;BMP_temperature;BMP_pressure;BME280_temperature;BME280_humidity;BME280_pressure;Samples;Min_cycle;Max_cycle;Signal;HPM_P1;HPM_P2
2021/01/02 00:01:04;;;;;;;41.70;10.38;;;17.00;55.80;;;;;;5032539;28;20068;-76
2021/01/02 00:03:49;;;;;;;29.75;8.68;;;16.80;56.30;;;;;;5035787;28;20017;-76
2021/01/02 00:06:27;;;;;;;30.90;9.35;;;16.60;56.70;;;;;;5035462;28;20029;-75
2021/01/02 00:09:05;;;;;;;39.28;10.80;;;16.70;57.30;;;;;;5037989;28;20108;-74
2021/01/02 00:12:06;;;;;;;33.70;9.30;;;16.70;56.20;;;;;;5041726;28;20124;-73
2021/01/02 00:15:04;;;;;;;37.85;8.60;;;16.40;57.30;;;;;;5035379;28;20025;-74
2021/01/02 00:17:51;;;;;;;23.77;9.30;;;16.00;57.80;;;;;;5038363;28;20033;-75
2021/01/02 00:20:23;;;;;;;25.58;8.13;;;16.10;57.70;;;;;;5044660;28;20057;-75
2021/01/02 00:22:54;;;;;;;22.52;7.55;;;16.10;57.60;;;;;;5038653;28;20039;-73
2021/01/02 00:25:31;;;;;;;29.58;8.90;;;16.10;57.50;;;;;;5040911;28;20028;-75
2021/01/02 00:28:17;;;;;;;23.33;7.93;;;16.10;57.80;;;;;;5033104;28;20416;-75
2021/01/02 00:31:01;;;;;;;25.77;7.53;;;16.00;57.60;;;;;;5033362;28;20030;-75
2021/01/02 00:33:48;;;;;;;31.40;8.35;;;16.00;58.10;;;;;;5047057;28;20034;-75
2021/01/02 00:36:30;;;;;;;29.40;6.95;;;15.90;57.10;;;;;;5025589;28;20036;-74
2021/01/02 00:38:57;;;;;;;29.67;6.85;;;15.90;58.00;;;;;;5034972;28;20171;-75
2021/01/02 00:41:26;;;;;;;26.27;7.05;;;15.90;57.80;;;;;;5035215;28;20037;-76
2021/01/02 00:43:54;;;;;;;22.00;7.10;;;15.80;57.50;;;;;;5032695;28;20036;-75
2021/01/02 00:46:20;;;;;;;30.67;8.52;;;15.70;58.00;;;;;;5037680;28;20367;-75
2021/01/02 00:48:48;;;;;;;27.13;6.43;;;15.50;58.00;;;;;;5036520;28;20033;-75
2021/01/02 00:51:16;;;;;;;29.23;6.35;;;15.40;58.70;;;;;;5028737;28;20056;-75
2021/01/02 00:53:55;;;;;;;29.83;8.57;;;15.30;58.70;;;;;;5032697;28;20026;-75
2021/01/02 00:56:27;;;;;;;25.40;5.78;;;15.30;59.10;;;;;;5029910;28;20474;-76
2021/01/02 00:59:21;;;;;;;20.77;8.05;;;15.10;58.60;;;;;;5043859;28;20025;-73
2021/01/02 01:02:24;;;;;;;33.80;7.82;;;15.00;60.00;;;;;;5040182;28;20026;-75
2021/01/02 01:04:57;;;;;;;40.80;8.13;;;14.90;60.00;;;;;;5037619;28;20025;-75
2021/01/02 01:07:26;;;;;;;;;;;14.80;59.80;;;;;;5045429;28;20022;-74
2021/01/02 01:09:56;;;;;;;22.75;6.13;;;14.60;61.20;;;;;;5036714;28;19920;-75
2021/01/02 01:12:28;;;;;;;22.50;6.53;;;14.60;62.00;;;;;;5038090;28;20025;-75
2021/01/02 01:14:55;;;;;;;22.42;6.13;;;14.50;62.50;;;;;;5040332;28;20055;-76
2021/01/02 01:17:24;;;;;;;26.23;6.65;;;14.40;63.40;;;;;;5045079;28;20447;-75
2021/01/02 01:19:53;;;;;;;25.80;7.32;;;14.20;63.10;;;;;;5033565;28;20087;-75
2021/01/02 01:22:27;;;;;;;28.90;7.53;;;14.20;64.90;;;;;;5032999;28;20041;-75
2021/01/02 01:25:05;;;;;;;19.55;6.57;;;14.30;64.60;;;;;;5032780;28;20104;-75
2021/01/02 01:28:03;;;;;;;21.63;7.03;;;14.10;64.40;;;;;;5026622;28;20355;-74
2021/01/02 01:30:35;;;;;;;26.10;6.78;;;14.00;65.10;;;;;;5035660;28;20032;-75
2021/01/02 01:33:03;;;;;;;31.30;6.68;;;14.10;64.30;;;;;;5036271;28;20067;-75
2021/01/02 01:35:30;;;;;;;20.88;5.55;;;14.00;64.30;;;;;;5033912;28;20037;-75
2021/01/02 01:37:58;;;;;;;23.02;6.03;;;13.80;65.70;;;;;;5034923;28;20094;-73
2021/01/02 01:40:31;;;;;;;20.65;6.68;;;13.90;65.80;;;;;;5030715;28;20523;-73
2021/01/02 01:43:19;;;;;;;20.75;4.70;;;13.70;66.90;;;;;;5031255;28;20032;-73
2021/01/02 01:46:13;;;;;;;17.45;4.38;;;13.50;66.90;;;;;;5034084;28;20031;-75
2021/01/02 01:49:05;;;;;;;18.48;5.05;;;13.50;67.10;;;;;;5036347;28;20115;-75
2021/01/02 01:51:53;;;;;;;28.25;8.90;;;13.40;65.90;;;;;;5037026;28;20076;-75
2021/01/02 01:54:29;;;;;;;22.05;7.00;;;13.40;68.00;;;;;;5035971;28;20039;-75
2021/01/02 01:57:02;;;;;;;21.80;6.10;;;13.40;66.80;;;;;;5030464;28;20411;-75
2021/01/02 01:59:57;;;;;;;15.80;4.50;;;13.40;67.20;;;;;;5035033;28;20029;-76
2021/01/02 02:02:45;;;;;;;16.40;5.30;;;13.30;65.60;;;;;;5030866;28;20026;-76
2021/01/02 02:05:17;;;;;;;25.70;5.80;;;13.30;65.90;;;;;;5030646;28;20511;-76
2021/01/02 02:08:05;;;;;;;21.52;5.60;;;13.30;66.00;;;;;;5033718;28;20078;-76
2021/01/02 02:10:36;;;;;;;19.50;4.88;;;13.40;65.20;;;;;;5029301;28;20483;-73
2021/01/02 02:13:15;;;;;;;14.90;4.25;;;13.30;66.70;;;;;;5035444;28;20030;-74
2021/01/02 02:15:52;;;;;;;25.65;5.45;;;13.40;63.90;;;;;;5030808;28;20359;-75
2021/01/02 02:18:21;;;;;;;22.90;5.13;;;13.40;63.30;;;;;;5031917;28;20035;-75
2021/01/02 02:21:01;;;;;;;17.38;4.80;;;13.40;64.70;;;;;;5036424;28;20061;-74
2021/01/02 02:23:42;;;;;;;23.83;5.28;;;13.40;66.00;;;;;;5034578;28;20022;-74
2021/01/02 02:26:36;;;;;;;28.02;5.47;;;13.40;65.90;;;;;;5036591;28;20049;-75
2021/01/02 02:29:12;;;;;;;17.63;4.45;;;13.30;65.40;;;;;;5028266;28;20040;-74
2021/01/02 02:31:43;;;;;;;20.98;5.72;;;13.20;65.70;;;;;;5045447;28;20461;-75
2021/01/02 02:34:10;;;;;;;13.33;4.47;;;13.10;65.90;;;;;;5033896;28;20021;-75
2021/01/02 02:36:37;;;;;;;17.35;4.53;;;13.10;65.40;;;;;;5040783;28;20036;-74
2021/01/02 02:39:08;;;;;;;21.00;5.05;;;13.00;65.20;;;;;;5037655;28;20483;-75
2021/01/02 02:41:55;;;;;;;30.17;8.40;;;13.00;65.20;;;;;;5034352;28;20052;-75
2021/01/02 02:44:30;;;;;;;16.88;6.18;;;13.00;64.60;;;;;;5041549;28;20030;-75
2021/01/02 02:46:58;;;;;;;26.15;9.80;;;12.90;65.00;;;;;;5041870;28;20025;-75
2021/01/02 02:49:30;;;;;;;23.98;6.88;;;12.90;64.40;;;;;;5038111;28;20017;-75
2021/01/02 02:52:12;;;;;;;22.58;6.32;;;12.70;65.80;;;;;;5054400;28;20048;-75
2021/01/02 02:54:40;;;;;;;23.52;6.47;;;12.80;65.40;;;;;;5038391;28;20114;-75
2021/01/02 02:57:09;;;;;;;20.95;6.15;;;12.70;64.20;;;;;;5027051;28;20029;-75
2021/01/02 02:59:35;;;;;;;19.60;6.60;;;12.80;65.20;;;;;;5027067;28;20033;-75
2021/01/02 03:02:11;;;;;;;18.75;5.80;;;12.60;66.70;;;;;;5031395;28;20479;-74
2021/01/02 03:04:37;;;;;;;16.92;4.53;;;12.70;65.20;;;;;;5034643;28;20029;-74
2021/01/02 03:07:05;;;;;;;25.38;5.50;;;12.60;65.60;;;;;;5045641;28;20013;-75
2021/01/02 03:09:32;;;;;;;21.02;6.63;;;12.40;67.10;;;;;;5055260;28;20039;-74
2021/01/02 03:12:00;;;;;;;18.42;4.53;;;12.40;66.10;;;;;;5046384;28;20088;-75
2021/01/02 03:14:27;;;;;;;20.73;4.70;;;12.50;64.20;;;;;;5033026;28;20037;-76
2021/01/02 03:16:58;;;;;;;18.20;6.32;;;12.50;64.60;;;;;;5044153;28;20032;-75
2021/01/02 03:19:32;;;;;;;15.90;5.40;;;12.50;64.80;;;;;;5036497;28;20112;-75
2021/01/02 03:21:59;;;;;;;24.92;7.90;;;12.50;64.80;;;;;;5047746;28;20021;-74
2021/01/02 03:24:26;;;;;;;24.17;6.18;;;12.60;63.10;;;;;;5056011;28;20044;-75
2021/01/02 03:26:53;;;;;;;29.92;6.78;;;12.80;63.00;;;;;;5031812;28;20022;-75
2021/01/02 03:29:19;;;;;;;20.33;7.22;;;12.80;63.40;;;;;;5040420;28;20021;-74
2021/01/02 03:31:46;;;;;;;14.68;4.75;;;12.70;63.90;;;;;;5040215;28;20026;-75
2021/01/02 03:34:12;;;;;;;14.68;4.80;;;12.70;63.90;;;;;;5018453;28;20530;-75
2021/01/02 03:36:39;;;;;;;24.30;8.45;;;12.70;64.40;;;;;;5031731;28;20036;-75
2021/01/02 03:39:05;;;;;;;24.50;6.20;;;12.70;63.50;;;;;;5039803;28;20017;-75
2021/01/02 03:41:32;;;;;;;32.47;12.38;;;12.80;62.70;;;;;;5022311;28;20032;-76
2021/01/02 03:44:00;;;;;;;21.38;8.82;;;12.80;63.40;;;;;;5043775;28;20032;-75
2021/01/02 03:46:29;;;;;;;18.55;6.57;;;12.70;65.00;;;;;;5039261;28;20029;-75
2021/01/02 03:48:56;;;;;;;15.02;7.30;;;12.60;64.50;;;;;;5043930;28;20067;-75
2021/01/02 03:51:24;;;;;;;15.10;6.20;;;12.60;64.30;;;;;;5041272;28;20040;-75
2021/01/02 03:53:50;;;;;;;19.02;7.72;;;12.60;64.50;;;;;;5039214;28;20098;-75
2021/01/02 03:56:17;;;;;;;14.73;5.75;;;12.50;64.60;;;;;;5046832;28;20478;-73
2021/01/02 03:58:43;;;;;;;12.52;5.07;;;12.40;64.60;;;;;;5042336;28;20029;-73
2021/01/02 04:01:12;;;;;;;22.05;5.75;;;12.40;64.70;;;;;;5033343;28;20335;-73
2021/01/02 04:03:39;;;;;;;18.63;5.00;;;12.50;63.70;;;;;;5040095;28;20032;-74
2021/01/02 04:06:06;;;;;;;17.02;5.00;;;12.50;64.50;;;;;;5031527;28;20026;-75
2021/01/02 04:08:32;;;;;;;14.05;5.28;;;12.40;65.40;;;;;;5037936;28;21817;-73
2021/01/02 04:10:58;;;;;;;13.98;5.55;;;12.30;65.70;;;;;;5034035;28;20025;-75
2021/01/02 04:13:25;;;;;;;18.25;5.60;;;12.30;65.10;;;;;;5040940;28;20037;-75
2021/01/02 04:15:52;;;;;;;17.20;5.22;;;12.30;64.50;;;;;;5033689;28;20071;-76
2021/01/02 04:18:18;;;;;;;19.80;5.55;;;12.20;64.80;;;;;;5035160;28;20029;-76
2021/01/02 04:20:48;;;;;;;24.45;7.05;;;12.40;63.70;;;;;;5042508;28;20025;-75
2021/01/02 04:23:14;;;;;;;14.65;5.55;;;12.30;65.00;;;;;;5036986;28;20470;-75
2021/01/02 04:25:41;;;;;;;26.30;7.57;;;12.20;64.70;;;;;;5034102;28;20026;-78
2021/01/02 04:28:13;;;;;;;23.38;7.00;;;12.20;64.00;;;;;;5040980;28;20417;-75
2021/01/02 04:30:40;;;;;;;16.42;5.43;;;12.40;64.40;;;;;;5029741;28;21373;-75
2021/01/02 04:33:06;;;;;;;25.20;6.72;;;12.30;64.00;;;;;;5031957;28;20073;-76
2021/01/02 04:35:33;;;;;;;21.13;6.78;;;12.30;65.00;;;;;;5050412;28;20029;-75
2021/01/02 04:38:03;;;;;;;14.10;4.55;;;12.20;65.50;;;;;;5045027;28;20036;-75
2021/01/02 04:40:30;;;;;;;15.93;5.07;;;12.00;67.10;;;;;;5032677;28;20025;-75
2021/01/02 04:42:57;;;;;;;25.40;5.70;;;12.00;66.70;;;;;;5029574;28;20026;-75
2021/01/02 04:45:25;;;;;;;26.27;6.85;;;12.20;65.70;;;;;;5037923;28;20022;-76
2021/01/02 04:47:52;;;;;;;25.80;7.43;;;12.40;65.80;;;;;;5036803;28;20459;-75
2021/01/02 04:50:19;;;;;;;28.50;6.03;;;12.50;65.50;;;;;;5042820;28;20408;-77
2021/01/02 04:52:49;;;;;;;21.38;6.45;;;12.50;66.40;;;;;;5034696;28;20021;-76
2021/01/02 04:55:17;;;;;;;30.85;6.68;;;12.30;67.30;;;;;;5037451;28;20150;-75
2021/01/02 04:57:47;;;;;;;28.60;6.35;;;12.40;65.50;;;;;;5026582;28;20116;-75
2021/01/02 05:00:15;;;;;;;22.88;6.00;;;12.40;66.00;;;;;;5027803;28;20119;-74
2021/01/02 05:02:45;;;;;;;17.00;3.88;;;12.40;65.50;;;;;;5025818;28;20013;-74
2021/01/02 05:05:12;;;;;;;18.27;4.47;;;12.40;66.90;;;;;;5031906;28;20452;-75
2021/01/02 05:07:38;;;;;;;17.05;4.38;;;12.40;66.50;;;;;;5035798;28;20060;-75
2021/01/02 05:10:05;;;;;;;17.80;4.68;;;12.40;66.40;;;;;;5036547;28;20025;-75
2021/01/02 05:12:34;;;;;;;12.82;4.70;;;12.40;66.80;;;;;;5028997;28;20375;-75
2021/01/02 05:15:09;;;;;;;20.88;5.07;;;12.40;66.50;;;;;;5035100;28;20455;-75
2021/01/02 05:17:37;;;;;;;17.35;4.80;;;12.20;68.60;;;;;;5035227;28;20034;-77
2021/01/02 05:20:12;;;;;;;15.85;5.63;;;12.10;69.00;;;;;;5037400;28;20030;-78
2021/01/02 05:22:40;;;;;;;30.52;8.60;;;12.10;69.80;;;;;;5039501;28;20068;-78
2021/01/02 05:25:15;;;;;;;13.45;5.65;;;11.90;69.40;;;;;;5041988;28;20039;-77
2021/01/02 05:27:51;;;;;;;18.00;6.22;;;12.00;69.00;;;;;;5042997;28;20025;-77
2021/01/02 05:30:35;;;;;;;18.17;6.45;;;12.00;68.10;;;;;;5040847;28;20052;-78
2021/01/02 05:33:08;;;;;;;23.13;6.88;;;12.10;67.30;;;;;;5052274;28;20474;-77
2021/01/02 05:35:44;;;;;;;64.10;45.03;;;12.20;66.10;;;;;;5035033;28;20044;-76
2021/01/02 05:38:22;;;;;;;30.35;19.00;;;12.30;65.40;;;;;;5036574;28;20025;-78
2021/01/02 05:40:59;;;;;;;37.47;22.08;;;12.20;66.10;;;;;;5047738;28;20047;-78
2021/01/02 05:43:29;;;;;;;26.42;17.75;;;12.10;66.50;;;;;;5033686;28;20029;-77
2021/01/02 05:45:55;;;;;;;30.27;14.95;;;12.00;67.60;;;;;;5038093;28;20037;-77
2021/01/02 05:48:27;;;;;;;20.40;9.25;;;12.00;67.60;;;;;;5035146;28;20018;-77
2021/01/02 05:50:59;;;;;;;15.77;6.90;;;11.90;67.50;;;;;;5038745;28;20100;-77
2021/01/02 05:53:33;;;;;;;15.98;6.05;;;11.80;68.80;;;;;;5041301;28;20029;-77
2021/01/02 05:56:13;;;;;;;24.83;5.82;;;11.90;67.30;;;;;;5038490;28;20371;-76
2021/01/02 05:58:46;;;;;;;26.67;6.18;;;11.90;65.90;;;;;;5039395;28;20337;-77
2021/01/02 06:01:17;;;;;;;25.25;6.50;;;12.00;65.70;;;;;;5040288;28;20029;-77
2021/01/02 06:03:46;;;;;;;16.33;5.75;;;12.20;65.40;;;;;;5038657;28;20072;-77
2021/01/02 06:06:14;;;;;;;15.93;5.47;;;12.10;65.80;;;;;;5050721;28;20100;-77
2021/01/02 06:08:48;;;;;;;24.80;7.47;;;12.00;65.70;;;;;;5041650;28;20135;-77
2021/01/02 06:11:22;;;;;;;18.63;4.90;;;11.90;66.30;;;;;;5035472;28;20343;-77
2021/01/02 06:13:51;;;;;;;17.45;4.07;;;11.80;67.80;;;;;;5034929;28;20033;-78
2021/01/02 06:16:18;;;;;;;15.95;4.15;;;11.70;68.00;;;;;;5034207;28;20379;-77
2021/01/02 06:18:47;;;;;;;17.90;5.57;;;11.70;67.50;;;;;;5033224;28;20037;-77
2021/01/02 06:21:18;;;;;;;12.75;4.70;;;11.80;67.60;;;;;;5025141;28;20108;-77
2021/01/02 06:23:46;;;;;;;24.58;6.35;;;11.70;68.00;;;;;;5029831;28;20041;-77
2021/01/02 06:26:15;;;;;;;31.83;7.72;;;11.90;66.80;;;;;;5040305;28;20029;-78
2021/01/02 06:28:44;;;;;;;27.60;6.13;;;11.90;67.20;;;;;;5040966;28;20415;-78
2021/01/02 06:31:13;;;;;;;13.20;5.47;;;11.90;67.60;;;;;;5033106;28;20024;-78
2021/01/02 06:33:48;;;;;;;14.63;4.43;;;12.00;67.30;;;;;;5035147;28;20449;-78
2021/01/02 06:36:35;;;;;;;20.33;5.50;;;12.00;67.60;;;;;;5030832;28;20036;-78
2021/01/02 06:39:17;;;;;;;19.60;4.18;;;12.20;66.20;;;;;;5030318;28;20040;-78
2021/01/02 06:41:43;;;;;;;13.38;5.45;;;12.40;66.00;;;;;;5034719;28;20021;-78
2021/01/02 06:44:09;;;;;;;11.18;3.67;;;12.30;66.40;;;;;;5054814;28;20095;-77
2021/01/02 06:46:37;;;;;;;13.38;4.38;;;12.30;67.10;;;;;;5035598;28;20017;-78
2021/01/02 06:49:33;;;;;;;12.15;4.28;;;12.20;67.70;;;;;;5036359;28;20113;-78
2021/01/02 06:51:59;;;;;;;13.30;4.53;;;12.20;67.90;;;;;;5030525;28;20034;-77
2021/01/02 06:54:26;;;;;;;14.77;5.40;;;12.30;67.80;;;;;;5032303;28;20555;-76
2021/01/02 06:57:06;;;;;;;17.83;4.05;;;12.30;67.80;;;;;;5034179;28;20045;-75
2021/01/02 06:59:32;;;;;;;12.15;4.85;;;12.30;67.80;;;;;;5039644;28;20075;-78
2021/01/02 07:01:59;;;;;;;11.52;4.60;;;12.20;68.60;;;;;;5038147;28;20025;-77
2021/01/02 07:04:43;;;;;;;17.52;4.03;;;12.10;68.90;;;;;;5030560;28;20078;-77
2021/01/02 07:07:09;;;;;;;35.20;6.85;;;12.10;68.30;;;;;;5034072;28;20087;-77
2021/01/02 07:09:40;;;;;;;10.65;4.13;;;12.30;67.80;;;;;;5037830;28;20032;-77
2021/01/02 07:12:12;;;;;;;14.82;5.28;;;12.30;67.60;;;;;;5021078;28;20021;-78
2021/01/02 07:14:39;;;;;;;15.98;6.22;;;12.30;67.60;;;;;;5025252;28;20037;-77
2021/01/02 07:17:11;;;;;;;10.88;4.78;;;12.40;67.20;;;;;;5019556;28;20026;-77
2021/01/02 07:19:42;;;;;;;13.03;4.77;;;12.40;67.20;;;;;;5033235;28;20108;-78
2021/01/02 07:22:20;;;;;;;14.30;4.57;;;12.40;67.10;;;;;;5022152;28;20057;-78
2021/01/02 07:24:49;;;;;;;15.65;4.95;;;12.40;67.00;;;;;;5033449;28;20029;-77
2021/01/02 07:27:19;;;;;;;15.95;5.00;;;12.50;66.90;;;;;;5035824;28;20048;-78
2021/01/02 07:29:51;;;;;;;14.18;4.10;;;12.50;67.10;;;;;;5029053;28;20045;-77
2021/01/02 07:32:29;;;;;;;10.23;3.97;;;12.50;67.40;;;;;;5030863;28;20025;-77
2021/01/02 07:35:05;;;;;;;32.90;8.88;;;12.50;67.30;;;;;;5033786;28;20313;-77
2021/01/02 07:37:33;;;;;;;23.02;6.75;;;12.60;66.40;;;;;;5035114;28;20551;-77
2021/01/02 07:40:14;;;;;;;25.65;7.45;;;12.70;66.40;;;;;;5026940;28;20040;-78
2021/01/02 07:42:48;;;;;;;30.20;7.25;;;12.80;66.30;;;;;;5037506;28;20121;-77
2021/01/02 07:45:17;;;;;;;24.38;5.80;;;12.80;66.40;;;;;;5038912;28;20080;-77
2021/01/02 07:47:58;;;;;;;22.52;6.05;;;12.90;66.40;;;;;;5035614;28;20018;-78
2021/01/02 07:50:27;;;;;;;23.63;8.25;;;12.90;66.60;;;;;;5037983;28;20357;-77
2021/01/02 07:53:04;;;;;;;26.55;7.28;;;13.00;67.10;;;;;;5035605;28;20017;-77
2021/01/02 07:55:31;;;;;;;31.75;7.00;;;13.20;67.70;;;;;;5050562;28;20032;-77
2021/01/02 07:57:59;;;;;;;25.20;6.60;;;13.30;66.70;;;;;;5034965;28;20033;-78
2021/01/02 08:00:25;;;;;;;20.48;5.78;;;13.20;67.10;;;;;;5041648;28;20033;-78
2021/01/02 08:02:53;;;;;;;24.73;5.03;;;13.00;67.90;;;;;;5039338;28;20024;-78
2021/01/02 08:05:22;;;;;;;28.38;5.57;;;12.90;68.90;;;;;;5034197;28;20025;-78
2021/01/02 08:07:57;;;;;;;26.70;7.60;;;12.80;69.50;;;;;;5038568;28;20107;-78
2021/01/02 08:10:24;;;;;;;18.77;4.90;;;12.80;69.70;;;;;;5030876;28;20041;-78
2021/01/02 08:12:57;;;;;;;26.52;5.43;;;12.80;69.40;;;;;;5042102;28;20024;-78
2021/01/02 08:15:37;;;;;;;30.58;6.95;;;12.80;70.00;;;;;;5035996;28;20060;-78
2021/01/02 08:18:04;;;;;;;23.65;5.72;;;12.80;69.90;;;;;;5034695;28;20025;-78
2021/01/02 08:20:31;;;;;;;27.23;6.32;;;12.80;70.70;;;;;;5041110;28;20431;-78
2021/01/02 08:22:58;;;;;;;18.75;5.25;;;12.80;70.50;;;;;;5037598;28;20060;-78
2021/01/02 08:25:26;;;;;;;27.80;9.60;;;12.80;70.80;;;;;;5029620;28;20058;-78
2021/01/02 08:27:55;;;;;;;22.23;5.72;;;12.70;72.50;;;;;;5039864;28;20029;-78
2021/01/02 08:30:22;;;;;;;31.60;9.55;;;12.70;72.30;;;;;;5025230;28;20455;-78
2021/01/02 08:32:53;;;;;;;37.83;8.45;;;12.80;72.90;;;;;;5038769;28;20095;-78
2021/01/02 08:35:22;;;;;;;37.15;9.20;;;12.70;73.10;;;;;;5038463;28;20053;-78
2021/01/02 08:37:49;;;;;;;23.70;7.13;;;12.80;72.50;;;;;;5038845;28;20041;-79
2021/01/02 08:40:18;;;;;;;21.70;6.15;;;12.80;72.60;;;;;;5030827;28;20033;-78
2021/01/02 08:42:47;;;;;;;18.65;5.68;;;12.80;72.30;;;;;;5039229;28;20017;-79
2021/01/02 08:45:27;;;;;;;16.65;4.80;;;12.90;71.50;;;;;;5030654;28;20036;-78
2021/01/02 08:48:13;;;;;;;27.17;8.60;;;13.00;71.10;;;;;;5029493;28;20017;-78
2021/01/02 08:50:40;;;;;;;24.92;5.53;;;13.00;72.50;;;;;;5037218;28;20115;-78
2021/01/02 08:53:07;;;;;;;20.13;5.10;;;12.90;72.40;;;;;;5041816;28;20034;-78
2021/01/02 08:55:33;;;;;;;20.92;5.68;;;13.10;71.60;;;;;;5034849;28;20032;-78
2021/01/02 08:58:00;;;;;;;21.70;5.72;;;13.10;71.90;;;;;;5037210;28;20036;-78
2021/01/02 09:00:30;;;;;;;17.60;5.78;;;13.20;71.20;;;;;;5034016;28;20048;-78
2021/01/02 09:03:07;;;;;;;19.05;5.63;;;13.30;70.80;;;;;;5034657;28;20025;-78
2021/01/02 09:05:34;;;;;;;16.33;5.45;;;13.30;70.70;;;;;;5025002;28;20036;-78
2021/01/02 09:08:05;;;;;;;15.85;5.38;;;13.40;70.30;;;;;;5037595;28;20176;-78
2021/01/02 09:10:42;;;;;;;20.38;7.03;;;13.40;70.10;;;;;;5037906;28;21289;-78
2021/01/02 09:13:24;;;;;;;23.60;7.50;;;13.40;69.80;;;;;;5044421;28;20033;-78
2021/01/02 09:15:51;;;;;;;29.77;6.25;;;13.50;69.00;;;;;;5019152;28;20022;-78
2021/01/02 09:18:30;;;;;;;35.20;7.50;;;13.50;68.20;;;;;;5026274;28;20040;-78
2021/01/02 09:20:57;;;;;;;19.98;5.07;;;13.60;68.30;;;;;;5032769;28;20048;-78
2021/01/02 09:23:34;;;;;;;17.55;4.50;;;13.50;68.60;;;;;;5034371;28;20021;-78
2021/01/02 09:26:00;;;;;;;12.25;4.38;;;13.40;69.10;;;;;;5035994;28;20103;-77
2021/01/02 09:28:27;;;;;;;18.88;4.90;;;13.40;69.40;;;;;;5026048;28;20034;-78
2021/01/02 09:30:54;;;;;;;22.42;6.47;;;13.40;69.30;;;;;;5040181;28;20029;-78
2021/01/02 09:33:20;;;;;;;20.05;5.28;;;13.50;68.40;;;;;;5028875;28;20473;-78
2021/01/02 09:35:47;;;;;;;22.45;5.57;;;13.50;68.40;;;;;;5036334;28;20470;-78
2021/01/02 09:38:14;;;;;;;12.52;4.32;;;13.50;68.30;;;;;;5036266;28;20497;-78
2021/01/02 09:40:43;;;;;;;15.45;4.57;;;13.40;68.40;;;;;;5041462;28;20360;-77
2021/01/02 09:43:12;;;;;;;18.35;4.78;;;13.40;68.50;;;;;;5037133;28;20031;-79
2021/01/02 09:45:40;;;;;;;15.50;4.78;;;13.40;68.50;;;;;;5035925;28;20167;-78
2021/01/02 09:48:07;;;;;;;20.65;5.68;;;13.50;68.40;;;;;;5030506;28;20458;-78
2021/01/02 09:50:34;;;;;;;13.93;4.55;;;13.50;68.30;;;;;;5032297;28;20025;-78
2021/01/02 09:53:01;;;;;;;10.88;3.78;;;13.40;68.30;;;;;;5035136;28;20103;-77
2021/01/02 09:55:28;;;;;;;17.23;3.53;;;13.40;68.60;;;;;;5027717;28;20075;-78
2021/01/02 09:57:54;;;;;;;14.60;4.00;;;13.50;68.50;;;;;;5036213;28;20026;-78
2021/01/02 10:00:22;;;;;;;11.55;3.53;;;13.40;68.80;;;;;;5028145;28;20057;-78
2021/01/02 10:02:49;;;;;;;21.98;5.30;;;13.50;68.70;;;;;;5042872;28;20018;-77
2021/01/02 10:05:18;;;;;;;11.27;3.92;;;13.50;68.90;;;;;;5031574;28;20064;-79
2021/01/02 10:07:44;;;;;;;13.00;4.82;;;13.40;69.00;;;;;;5037123;28;20017;-78
2021/01/02 10:10:13;;;;;;;21.02;5.85;;;13.50;68.70;;;;;;5018859;28;20030;-78
2021/01/02 10:12:44;;;;;;;11.13;4.18;;;13.50;68.40;;;;;;5044814;28;20342;-78
2021/01/02 10:15:12;;;;;;;19.42;5.10;;;13.50;68.70;;;;;;5040100;28;20026;-78
2021/01/02 10:17:38;;;;;;;23.35;4.95;;;13.60;68.40;;;;;;5043699;28;20030;-78
2021/01/02 10:20:06;;;;;;;33.60;7.18;;;13.60;67.70;;;;;;5042612;28;20025;-77
2021/01/02 10:22:33;;;;;;;24.13;4.57;;;13.60;66.70;;;;;;5035142;28;20045;-78
2021/01/02 10:24:59;;;;;;;13.02;3.50;;;13.60;67.60;;;;;;5040186;28;20036;-78
2021/01/02 10:27:27;;;;;;;10.13;3.88;;;13.40;68.40;;;;;;5040680;28;20091;-77
2021/01/02 10:29:54;;;;;;;15.60;3.70;;;13.40;68.40;;;;;;5036069;28;20109;-77
2021/01/02 10:32:24;;;;;;;12.35;4.32;;;13.40;68.80;;;;;;5044884;28;20032;-78
2021/01/02 10:34:50;;;;;;;10.35;3.50;;;13.40;68.80;;;;;;5038228;28;20459;-78
2021/01/02 10:37:19;;;;;;;16.45;4.32;;;13.40;68.70;;;;;;5034687;28;20124;-78
2021/01/02 10:39:46;;;;;;;12.88;3.88;;;13.40;68.60;;;;;;5031604;28;20350;-78
2021/01/02 10:42:14;;;;;;;14.07;4.85;;;13.40;68.80;;;;;;5015062;28;20341;-77
2021/01/02 10:44:47;;;;;;;16.52;5.18;;;13.50;68.80;;;;;;5021324;28;20032;-78
2021/01/02 10:47:23;;;;;;;21.05;5.80;;;13.40;68.90;;;;;;5034271;28;20026;-78
2021/01/02 10:49:50;;;;;;;17.10;6.35;;;13.40;69.10;;;;;;5032579;28;20348;-78
2021/01/02 10:52:19;;;;;;;27.25;6.47;;;13.40;69.40;;;;;;5033183;28;20044;-78
2021/01/02 10:54:47;;;;;;;29.95;7.60;;;13.40;69.80;;;;;;5029402;28;20363;-78
2021/01/02 10:57:15;;;;;;;30.23;7.45;;;13.30;70.30;;;;;;5034665;28;20087;-78
2021/01/02 10:59:47;;;;;;;24.88;8.00;;;13.20;70.50;;;;;;5026233;28;20060;-78
2021/01/02 11:02:14;;;;;;;24.05;6.53;;;13.30;70.40;;;;;;5035637;28;20025;-78
2021/01/02 11:04:41;;;;;;;27.30;8.25;;;13.30;70.50;;;;;;5028963;28;20033;-78
2021/01/02 11:07:09;;;;;;;24.77;6.65;;;13.30;70.70;;;;;;5031436;28;20040;-78
2021/01/02 11:09:37;;;;;;;23.98;6.55;;;13.20;70.90;;;;;;5037094;28;20017;-79
2021/01/02 11:12:04;;;;;;;33.58;7.10;;;13.10;71.20;;;;;;5030973;28;20017;-78
2021/01/02 11:14:31;;;;;;;25.02;6.93;;;13.10;71.80;;;;;;5046611;28;20355;-79
2021/01/02 11:16:58;;;;;;;23.08;8.32;;;13.00;71.90;;;;;;5028213;28;20025;-78
2021/01/02 11:19:27;;;;;;;23.17;6.65;;;13.00;72.20;;;;;;5018274;28;20026;-78
2021/01/02 11:21:56;;;;;;;30.85;8.20;;;13.00;72.00;;;;;;5033185;28;20017;-78
2021/01/02 11:24:25;;;;;;;25.15;6.70;;;12.90;72.40;;;;;;5036444;28;20447;-78
2021/01/02 11:26:59;;;;;;;23.52;7.25;;;13.00;72.10;;;;;;5021264;28;20022;-78
2021/01/02 11:29:30;;;;;;;15.82;5.60;;;13.10;71.50;;;;;;5036590;28;20017;-78
2021/01/02 11:32:03;;;;;;;18.55;5.80;;;13.10;71.50;;;;;;5036873;28;20025;-77
2021/01/02 11:34:29;;;;;;;19.15;6.35;;;13.10;71.20;;;;;;5037227;28;20033;-78
2021/01/02 11:36:58;;;;;;;20.85;7.10;;;13.20;70.80;;;;;;5037275;28;20025;-78
2021/01/02 11:39:26;;;;;;;19.35;7.43;;;13.20;70.70;;;;;;5044953;28;20029;-77
2021/01/02 11:41:53;;;;;;;15.15;6.00;;;13.20;70.70;;;;;;5037715;28;20025;-77
2021/01/02 11:44:22;;;;;;;17.48;5.95;;;13.30;71.70;;;;;;5032384;28;20471;-77
2021/01/02 11:46:52;;;;;;;23.17;6.22;;;13.30;71.60;;;;;;5030195;28;20026;-77
2021/01/02 11:49:21;;;;;;;17.85;7.05;;;13.30;71.30;;;;;;5031562;28;20022;-77
2021/01/02 11:51:49;;;;;;;13.82;5.40;;;13.30;71.30;;;;;;5035803;28;20099;-79
2021/01/02 11:54:16;;;;;;;18.88;7.57;;;13.30;71.00;;;;;;5037343;28;20025;-77
2021/01/02 11:56:43;;;;;;;26.40;7.47;;;13.40;71.00;;;;;;5034724;28;20037;-77
2021/01/02 11:59:09;;;;;;;21.90;8.00;;;13.40;70.80;;;;;;5035383;28;20029;-77
2021/01/02 12:01:39;;;;;;;17.42;5.43;;;13.30;70.70;;;;;;5025904;28;20030;-76
2021/01/02 12:04:08;;;;;;;20.60;6.20;;;13.30;70.70;;;;;;5033867;28;20028;-76
2021/01/02 12:06:35;;;;;;;18.08;6.07;;;13.30;71.80;;;;;;5035928;28;20025;-77
2021/01/02 12:09:03;;;;;;;15.43;5.35;;;13.30;71.40;;;;;;5034639;28;20025;-76
2021/01/02 12:11:31;;;;;;;14.30;6.15;;;13.30;71.30;;;;;;5026871;28;20040;-76
2021/01/02 12:13:59;;;;;;;21.17;6.95;;;13.30;71.80;;;;;;5026375;28;20056;-76
2021/01/02 12:16:44;;;;;;;17.30;6.03;;;13.30;72.00;;;;;;5050585;28;20490;-75
2021/01/02 12:19:17;;;;;;;19.50;6.03;;;13.30;72.10;;;;;;5035590;28;20033;-75
2021/01/02 12:21:44;;;;;;;23.80;9.98;;;13.10;73.60;;;;;;5033065;28;20037;-76
2021/01/02 12:24:11;;;;;;;16.77;5.93;;;13.10;73.40;;;;;;5034508;28;20018;-75
2021/01/02 12:26:55;;;;;;;20.90;7.05;;;13.10;73.20;;;;;;5033526;28;20427;-75
2021/01/02 12:29:23;;;;;;;16.00;5.47;;;13.10;72.40;;;;;;5033128;28;20355;-74
2021/01/02 12:31:54;;;;;;;17.33;6.32;;;13.10;73.60;;;;;;5034192;28;20033;-74
2021/01/02 12:34:28;;;;;;;19.33;8.13;;;13.00;73.90;;;;;;5033340;28;20333;-74
2021/01/02 12:36:56;;;;;;;22.60;8.60;;;12.90;74.70;;;;;;5029918;28;20025;-74
2021/01/02 12:39:25;;;;;;;27.65;8.48;;;12.80;75.60;;;;;;5019673;28;20029;-74
2021/01/02 12:41:52;;;;;;;22.55;8.73;;;12.60;76.70;;;;;;5032939;28;20356;-74
2021/01/02 12:44:21;;;;;;;21.55;8.85;;;12.50;77.70;;;;;;5041137;28;20025;-73
2021/01/02 12:47:12;;;;;;;29.50;10.27;;;12.50;77.00;;;;;;5034026;28;20021;-74
2021/01/02 12:49:41;;;;;;;28.60;11.23;;;12.40;78.10;;;;;;5024849;28;20520;-73
2021/01/02 12:52:08;;;;;;;25.10;11.35;;;12.20;79.00;;;;;;5033969;28;20036;-73
2021/01/02 12:54:36;;;;;;;17.20;8.75;;;12.20;79.10;;;;;;5020374;28;20032;-74
2021/01/02 12:57:04;;;;;;;31.27;11.10;;;12.20;78.50;;;;;;5031832;28;20017;-75